Aransas Pass — WDF5061 — position and weather

sailwx.info

Track history (hours):
 
Tides and Currents Weather Stations Pressure Air Temp Water Temp Dewpoint Dewpoint Depression Visibility Wind Speed Wind Dir Waves Ship Positions

Aransas Pass

More information available from US FCC via Universal Licensing System and Coast Guard Vessel Documentation Center.

Last reported at 2014-Sep-21 10:12 UTC. Time now 2014-Sep-21 16:10 UTC.
Position N 29°55' W 090°04'.

Length 26 m; draft 3 m.

Type: Towing. MMSI: 367458930.

Date/timePositionNaut miles runAvg speedWind from/ knotsBaromVisibWave heightAir tempDewpointWater temp
2014-Sep-21 10:12N 29°55' W 090°04'16 5.8
2014-Sep-21 07:30N 29°56' W 090°22'4 3.7
2014-Sep-21 06:33N 29°59' W 090°24'0 0.1
2014-Sep-21 05:33N 29°59' W 090°24'1 0.7
2014-Sep-21 04:33N 29°60' W 090°25'0 0.1
2014-Sep-21 03:33N 29°60' W 090°25'0 0.0
2014-Sep-21 02:05N 29°60' W 090°25'0 0.0
2014-Sep-21 01:33N 29°60' W 090°25'0 0.0
2014-Sep-21 00:33N 29°60' W 090°25'0 0.0
2014-Sep-20 23:33N 29°60' W 090°25'0 0.0
2014-Sep-20 22:33N 29°60' W 090°25'0 0.0
2014-Sep-20 21:33N 29°60' W 090°25'0 0.0
2014-Sep-20 20:33N 29°60' W 090°25'0 0.0
2014-Sep-20 19:33N 29°60' W 090°25'0 0.0
2014-Sep-20 18:33N 29°60' W 090°25'0 0.0
2014-Sep-20 17:33N 29°60' W 090°25'0 0.0
2014-Sep-20 16:33N 29°60' W 090°25'0 0.0
2014-Sep-20 15:33N 29°60' W 090°25'0 0.0
2014-Sep-20 14:32N 29°60' W 090°25'0 0.0
2014-Sep-20 13:33N 29°60' W 090°25'0 0.0
2014-Sep-20 12:33N 29°60' W 090°25'0 0.0
2014-Sep-20 11:33N 29°60' W 090°25'0 0.0
2014-Sep-20 10:33N 29°60' W 090°25'0 0.0
2014-Sep-20 09:33N 29°60' W 090°25'0 0.0
2014-Sep-20 08:33N 29°60' W 090°25'0 0.0
2014-Sep-20 07:33N 29°60' W 090°25'0 0.0
2014-Sep-20 06:33N 29°60' W 090°25'0 0.0
2014-Sep-20 05:33N 29°60' W 090°25'0 0.0
2014-Sep-20 04:33N 29°60' W 090°25'0 0.0
2014-Sep-20 03:33N 29°60' W 090°25'0 0.1
2014-Sep-20 02:33N 29°60' W 090°25'2 1.9
2014-Sep-20 01:33N 29°58' W 090°24'0 0.0
2014-Sep-18 09:07N 29°58' W 090°24'0 0.2
2014-Sep-18 08:33N 29°58' W 090°24'0 0.1
2014-Sep-18 07:33N 29°58' W 090°24'2 2.3
2014-Sep-18 06:33N 29°56' W 090°22'2 0.0
2014-Sep-16 12:31N 29°57' W 090°23'0 0.0
2014-Sep-16 11:33N 29°57' W 090°23'0 0.0
2014-Sep-16 10:33N 29°57' W 090°23'0 0.0
2014-Sep-16 09:33N 29°57' W 090°23'0 0.0
2014-Sep-16 08:33N 29°57' W 090°23'0 0.3
2014-Sep-16 07:28N 29°57' W 090°23'0 0.0
2014-Sep-16 06:23N 29°57' W 090°23'0 0.4
2014-Sep-16 05:33N 29°57' W 090°23'0 0.0
2014-Sep-16 04:33N 29°57' W 090°23'0 0.0
2014-Sep-16 03:33N 29°57' W 090°23'0 0.0
2014-Sep-16 02:33N 29°57' W 090°23'0 0.0
2014-Sep-16 01:33N 29°57' W 090°23'1 0.7
2014-Sep-16 00:32N 29°57' W 090°23'0 0.0
2014-Sep-15 23:33N 29°57' W 090°23'1 0.1
2014-Sep-15 12:19N 29°57' W 090°23'0 0.0
2014-Sep-15 11:32N 29°57' W 090°23'0 0.0
2014-Sep-15 10:30N 29°57' W 090°23'0 0.0
2014-Sep-15 09:33N 29°57' W 090°23'0 0.0
2014-Sep-15 08:33N 29°57' W 090°23'0 0.0
2014-Sep-15 07:32N 29°57' W 090°23'0 0.0
2014-Sep-15 06:33N 29°57' W 090°23'0 0.0
2014-Sep-15 05:27N 29°57' W 090°23'0 0.0
2014-Sep-15 04:31N 29°57' W 090°23'0 0.0
2014-Sep-15 03:33N 29°57' W 090°23'0 0.0
2014-Sep-15 02:33N 29°57' W 090°23'0 0.0
2014-Sep-15 01:32N 29°57' W 090°23'0 0.0
2014-Sep-15 00:33N 29°57' W 090°23'0 0.0
2014-Sep-14 23:33N 29°57' W 090°23'0 0.0
2014-Sep-14 22:33N 29°57' W 090°23'0 0.0
2014-Sep-14 21:33N 29°57' W 090°23'0 0.0
2014-Sep-14 20:33N 29°57' W 090°23'0 0.0
2014-Sep-14 19:33N 29°57' W 090°23'0 0.0
2014-Sep-14 18:33N 29°57' W 090°23'0 0.0
2014-Sep-14 17:25N 29°57' W 090°23'0 0.0
2014-Sep-14 12:33N 29°57' W 090°23'0 0.0
2014-Sep-14 11:33N 29°57' W 090°23'0 0.0
2014-Sep-14 10:33N 29°57' W 090°23'0 0.0
2014-Sep-14 09:33N 29°57' W 090°23'0 0.0
2014-Sep-14 08:33N 29°57' W 090°23'0 0.0
2014-Sep-14 07:33N 29°57' W 090°23'0 0.0
2014-Sep-14 06:33N 29°57' W 090°23'0 0.0
2014-Sep-14 05:33N 29°57' W 090°23'0 0.0
2014-Sep-14 04:33N 29°57' W 090°23'0 0.0
2014-Sep-14 03:33N 29°57' W 090°23'0 0.0
2014-Sep-14 02:33N 29°57' W 090°23'0 0.0
2014-Sep-14 01:33N 29°57' W 090°23'0 0.0
2014-Sep-13 21:33N 29°57' W 090°23'0 0.0
2014-Sep-13 20:33N 29°57' W 090°23'0 0.0
2014-Sep-13 19:33N 29°57' W 090°23'0 0.0
2014-Sep-13 18:33N 29°57' W 090°23'0 0.0
2014-Sep-13 02:19N 29°57' W 090°23'0 0.0
2014-Sep-12 12:33N 29°57' W 090°23'0 0.0
2014-Sep-12 11:33N 29°57' W 090°23'0 0.0
2014-Sep-12 10:31N 29°57' W 090°23'0 0.0
2014-Sep-12 09:33N 29°57' W 090°23'0 0.0
2014-Sep-12 08:32N 29°57' W 090°23'0 0.0
2014-Sep-12 07:33N 29°57' W 090°23'0 0.0
2014-Sep-12 06:33N 29°57' W 090°23'0 0.0
2014-Sep-12 05:33N 29°57' W 090°23'0 0.0
2014-Sep-12 04:33N 29°57' W 090°23'0 0.0
2014-Sep-12 03:33N 29°57' W 090°23'0 0.0
2014-Sep-12 02:33N 29°57' W 090°23'0 0.0
2014-Sep-12 01:33N 29°57' W 090°23'0 0.0
2014-Sep-12 00:33N 29°57' W 090°23'0 0.0
2014-Sep-11 23:33N 29°57' W 090°23'0 0.0
2014-Sep-11 22:33N 29°57' W 090°23'8 4.1
2014-Sep-11 20:30N 30°03' W 090°31'5 5.3
2014-Sep-11 19:30N 30°02' W 090°37'1 0.9
2014-Sep-11 18:31N 30°02' W 090°36'1 0.4
2014-Sep-11 16:28N 30°02' W 090°37'1 0.2
2014-Sep-11 12:33N 30°02' W 090°36'0 0.0
2014-Sep-11 11:33N 30°02' W 090°36'0 0.0
2014-Sep-11 10:33N 30°02' W 090°36'  
Track history (hours):
 
Tides and Currents Weather Stations Pressure Air Temp Water Temp Dewpoint Dewpoint Depression Visibility Wind Speed Wind Dir Waves Ship Positions

Aransas Pass

More information available from US FCC via Universal Licensing System and Coast Guard Vessel Documentation Center.

Last reported at 2014-Sep-21 10:12 UTC. Time now 2014-Sep-21 16:10 UTC.
Position N 29°55' W 090°04'.

Length 26 m; draft 3 m.

Type: Towing. MMSI: 367458930.

Date/timePositionNaut miles runAvg speedWind from/ knotsBaromVisibWave heightAir tempDewpointWater temp
2014-Sep-21 10:12N 29°55' W 090°04'16 5.8
2014-Sep-21 07:30N 29°56' W 090°22'4 3.7
2014-Sep-21 06:33N 29°59' W 090°24'0 0.1
2014-Sep-21 05:33N 29°59' W 090°24'1 0.7
2014-Sep-21 04:33N 29°60' W 090°25'0 0.1
2014-Sep-21 03:33N 29°60' W 090°25'0 0.0
2014-Sep-21 02:05N 29°60' W 090°25'0 0.0
2014-Sep-21 01:33N 29°60' W 090°25'0 0.0
2014-Sep-21 00:33N 29°60' W 090°25'0 0.0
2014-Sep-20 23:33N 29°60' W 090°25'0 0.0
2014-Sep-20 22:33N 29°60' W 090°25'0 0.0
2014-Sep-20 21:33N 29°60' W 090°25'0 0.0
2014-Sep-20 20:33N 29°60' W 090°25'0 0.0
2014-Sep-20 19:33N 29°60' W 090°25'0 0.0
2014-Sep-20 18:33N 29°60' W 090°25'0 0.0
2014-Sep-20 17:33N 29°60' W 090°25'0 0.0
2014-Sep-20 16:33N 29°60' W 090°25'0 0.0
2014-Sep-20 15:33N 29°60' W 090°25'0 0.0
2014-Sep-20 14:32N 29°60' W 090°25'0 0.0
2014-Sep-20 13:33N 29°60' W 090°25'0 0.0
2014-Sep-20 12:33N 29°60' W 090°25'0 0.0
2014-Sep-20 11:33N 29°60' W 090°25'0 0.0
2014-Sep-20 10:33N 29°60' W 090°25'0 0.0
2014-Sep-20 09:33N 29°60' W 090°25'0 0.0
2014-Sep-20 08:33N 29°60' W 090°25'0 0.0
2014-Sep-20 07:33N 29°60' W 090°25'0 0.0
2014-Sep-20 06:33N 29°60' W 090°25'0 0.0
2014-Sep-20 05:33N 29°60' W 090°25'0 0.0
2014-Sep-20 04:33N 29°60' W 090°25'0 0.0
2014-Sep-20 03:33N 29°60' W 090°25'0 0.1
2014-Sep-20 02:33N 29°60' W 090°25'2 1.9
2014-Sep-20 01:33N 29°58' W 090°24'0 0.0
2014-Sep-18 09:07N 29°58' W 090°24'0 0.2
2014-Sep-18 08:33N 29°58' W 090°24'0 0.1
2014-Sep-18 07:33N 29°58' W 090°24'2 2.3
2014-Sep-18 06:33N 29°56' W 090°22'2 0.0
2014-Sep-16 12:31N 29°57' W 090°23'0 0.0
2014-Sep-16 11:33N 29°57' W 090°23'0 0.0
2014-Sep-16 10:33N 29°57' W 090°23'0 0.0
2014-Sep-16 09:33N 29°57' W 090°23'0 0.0
2014-Sep-16 08:33N 29°57' W 090°23'0 0.3
2014-Sep-16 07:28N 29°57' W 090°23'0 0.0
2014-Sep-16 06:23N 29°57' W 090°23'0 0.4
2014-Sep-16 05:33N 29°57' W 090°23'0 0.0
2014-Sep-16 04:33N 29°57' W 090°23'0 0.0
2014-Sep-16 03:33N 29°57' W 090°23'0 0.0
2014-Sep-16 02:33N 29°57' W 090°23'0 0.0
2014-Sep-16 01:33N 29°57' W 090°23'1 0.7
2014-Sep-16 00:32N 29°57' W 090°23'0 0.0
2014-Sep-15 23:33N 29°57' W 090°23'1 0.1
2014-Sep-15 12:19N 29°57' W 090°23'0 0.0
2014-Sep-15 11:32N 29°57' W 090°23'0 0.0
2014-Sep-15 10:30N 29°57' W 090°23'0 0.0
2014-Sep-15 09:33N 29°57' W 090°23'0 0.0
2014-Sep-15 08:33N 29°57' W 090°23'0 0.0
2014-Sep-15 07:32N 29°57' W 090°23'0 0.0
2014-Sep-15 06:33N 29°57' W 090°23'0 0.0
2014-Sep-15 05:27N 29°57' W 090°23'0 0.0
2014-Sep-15 04:31N 29°57' W 090°23'0 0.0
2014-Sep-15 03:33N 29°57' W 090°23'0 0.0
2014-Sep-15 02:33N 29°57' W 090°23'0 0.0
2014-Sep-15 01:32N 29°57' W 090°23'0 0.0
2014-Sep-15 00:33N 29°57' W 090°23'0 0.0
2014-Sep-14 23:33N 29°57' W 090°23'0 0.0
2014-Sep-14 22:33N 29°57' W 090°23'0 0.0
2014-Sep-14 21:33N 29°57' W 090°23'0 0.0
2014-Sep-14 20:33N 29°57' W 090°23'0 0.0
2014-Sep-14 19:33N 29°57' W 090°23'0 0.0
2014-Sep-14 18:33N 29°57' W 090°23'0 0.0
2014-Sep-14 17:25N 29°57' W 090°23'0 0.0
2014-Sep-14 12:33N 29°57' W 090°23'0 0.0
2014-Sep-14 11:33N 29°57' W 090°23'0 0.0
2014-Sep-14 10:33N 29°57' W 090°23'0 0.0
2014-Sep-14 09:33N 29°57' W 090°23'0 0.0
2014-Sep-14 08:33N 29°57' W 090°23'0 0.0
2014-Sep-14 07:33N 29°57' W 090°23'0 0.0
2014-Sep-14 06:33N 29°57' W 090°23'0 0.0
2014-Sep-14 05:33N 29°57' W 090°23'0 0.0
2014-Sep-14 04:33N 29°57' W 090°23'0 0.0
2014-Sep-14 03:33N 29°57' W 090°23'0 0.0
2014-Sep-14 02:33N 29°57' W 090°23'0 0.0
2014-Sep-14 01:33N 29°57' W 090°23'0 0.0
2014-Sep-13 21:33N 29°57' W 090°23'0 0.0
2014-Sep-13 20:33N 29°57' W 090°23'0 0.0
2014-Sep-13 19:33N 29°57' W 090°23'0 0.0
2014-Sep-13 18:33N 29°57' W 090°23'0 0.0
2014-Sep-13 02:19N 29°57' W 090°23'0 0.0
2014-Sep-12 12:33N 29°57' W 090°23'0 0.0
2014-Sep-12 11:33N 29°57' W 090°23'0 0.0
2014-Sep-12 10:31N 29°57' W 090°23'0 0.0
2014-Sep-12 09:33N 29°57' W 090°23'0 0.0
2014-Sep-12 08:32N 29°57' W 090°23'0 0.0
2014-Sep-12 07:33N 29°57' W 090°23'0 0.0
2014-Sep-12 06:33N 29°57' W 090°23'0 0.0
2014-Sep-12 05:33N 29°57' W 090°23'0 0.0
2014-Sep-12 04:33N 29°57' W 090°23'0 0.0
2014-Sep-12 03:33N 29°57' W 090°23'0 0.0
2014-Sep-12 02:33N 29°57' W 090°23'0 0.0
2014-Sep-12 01:33N 29°57' W 090°23'0 0.0
2014-Sep-12 00:33N 29°57' W 090°23'0 0.0
2014-Sep-11 23:33N 29°57' W 090°23'0 0.0
2014-Sep-11 22:33N 29°57' W 090°23'8 4.1
2014-Sep-11 20:30N 30°03' W 090°31'5 5.3
2014-Sep-11 19:30N 30°02' W 090°37'1 0.9
2014-Sep-11 18:31N 30°02' W 090°36'1 0.4
2014-Sep-11 16:28N 30°02' W 090°37'1 0.2
2014-Sep-11 12:33N 30°02' W 090°36'0 0.0
2014-Sep-11 11:33N 30°02' W 090°36'0 0.0
2014-Sep-11 10:33N 30°02' W 090°36'  

Dump ship's entire track history